KGXF

Gila Bend Af Aux Airport

Gila Bend, Arizona, USA
METAR KGXF 230458Z AUTO 16006KT 10SM CLR 22/11 A2983 RMK AO2 SLP092 T02150107
Observed Flight Rules
Oct-23 @ 04:58 UTC (20 minutes ago) Visual Flight Rules
Wind Visibility Clouds
160° at 6 knots 10 miles
  • Clear skies
Temperatures Readings
Current 22°C / 72°F
Dewpoint 11°C / 52°F
Humidity 50%
Altimeter 29.83" Hg
Pressure 1009.2 hPa
Elevation 262
METAR KGXF 230458Z AUTO 16006KT 10SM CLR 22/11 A2983 RMK AO2 SLP092 T02150107
Observed Flight Rules
Oct-23 @ 04:58 UTC
(20 minutes ago)
VFR
Wind Visibility
160° at 6 knots 10 miles
Clouds
  • Clear skies
Temperature Dewpoint
22°C / 72°F 11°C / 52°F
Humidity Altimeter Pressure
50% 29.83" Hg 1009.2 hPa